Time;durP1;ratioP1;P1;durP2;ratioP2;P2;SDS_P1;SDS_P2;PMS_P1;PMS_P2;Temp;Humidity;BMP_temperature;BMP_pressure;BME280_temperature;BME280_humidity;BME280_pressure;Samples;Min_cycle;Max_cycle;Signal;HPM_P1;HPM_P2
2024/01/29 00:02:09;;;;;;;;;;;;;;;1.62;90.84;101351.77;109634;1255;68753;-66
2024/01/29 00:04:36;;;;;;;;;;;;;;;1.62;90.56;101346.45;109591;1251;72901;-67
2024/01/29 00:07:04;;;;;;;;;;;;;;;1.67;90.61;101347.13;109300;1260;61279;-67
2024/01/29 00:09:31;;;;;;;;;;;;;;;1.74;90.54;101350.20;109525;1254;62205;-67
2024/01/29 00:11:59;;;;;;;;;;;;;;;1.71;90.61;101349.75;109624;1254;74257;-67
2024/01/29 00:14:27;;;;;;;;;;;;;;;1.69;91.03;101351.08;109654;1254;68358;-67
2024/01/29 00:16:54;;;;;;;;;;;;;;;1.73;91.36;101347.64;109093;1258;72730;-67
2024/01/29 00:19:22;;;;;;;;;;;;;;;1.65;91.75;101338.70;109200;1256;62388;-67
2024/01/29 00:21:50;;;;;;;;;;;;;;;1.62;91.58;101341.89;109101;1258;60961;-67
2024/01/29 00:24:17;;;;;;;;;;;;;;;1.62;91.87;101340.43;109225;1257;74027;-67
2024/01/29 00:26:45;;;;;;;;;;;;;;;1.62;91.76;101341.13;109230;1256;70649;-66
2024/01/29 00:29:12;;;;;;;;;;;;;;;1.62;91.63;101340.77;109216;1257;73347;-66
2024/01/29 00:31:40;;;;;;;;;;;;;;;1.61;91.55;101341.91;109175;1257;63139;-66
2024/01/29 00:34:07;;;;;;;;;;;;;;;1.65;91.55;101342.38;109080;1256;59179;-66
2024/01/29 00:36:35;;;;;;;;;;;;;;;1.69;91.34;101343.94;109234;1256;73203;-66
2024/01/29 00:39:09;;;;;;;;;;;;;;;1.38;93.01;101340.67;109274;1256;70357;-66
2024/01/29 00:41:36;;;;;;;;;;;;;;;1.44;92.73;101340.98;109228;1257;73614;-67
2024/01/29 00:44:04;;;;;;;;;;;;;;;1.45;92.45;101340.80;109179;1257;59866;-67
2024/01/29 00:46:31;;;;;;;;;;;;;;;1.33;92.73;101342.17;109143;1257;59813;-66
2024/01/29 00:48:59;;;;;;;;;;;;;;;0.85;96.65;101336.80;109286;1254;76570;-66
2024/01/29 00:51:27;;;;;;;;;;;;;;;1.25;93.61;101340.49;109121;1254;67657;-67
2024/01/29 00:53:54;;;;;;;;;;;;;;;1.16;94.00;101338.05;109293;1254;70796;-66
2024/01/29 00:56:22;;;;;;;;;;;;;;;1.15;94.15;101338.84;109389;1259;61239;-66
2024/01/29 00:58:49;;;;;;;;;;;;;;;1.17;94.21;101338.52;109436;1254;58964;-66
2024/01/29 01:01:17;;;;;;;;;;;;;;;1.15;94.54;101335.52;109431;1257;73380;-66
2024/01/29 01:03:45;;;;;;;;;;;;;;;1.18;94.62;101331.70;109414;1254;67632;-66
2024/01/29 01:06:12;;;;;;;;;;;;;;;1.19;94.32;101332.46;109376;1254;72415;-66
2024/01/29 01:08:40;;;;;;;;;;;;;;;1.21;94.46;101333.67;109387;1255;59546;-64
2024/01/29 01:11:07;;;;;;;;;;;;;;;1.15;94.68;101338.34;109211;1256;60544;-66
2024/01/29 01:13:35;;;;;;;;;;;;;;;1.20;94.67;101342.23;109185;1257;75107;-66
2024/01/29 01:16:02;;;;;;;;;;;;;;;1.22;94.52;101346.84;109173;1255;67865;-66
2024/01/29 01:18:30;;;;;;;;;;;;;;;1.26;94.51;101350.60;109488;1254;72591;-66
2024/01/29 01:20:57;;;;;;;;;;;;;;;1.29;94.54;101349.10;109610;1253;59553;-66
2024/01/29 01:23:25;;;;;;;;;;;;;;;1.30;94.40;101348.29;109309;1252;59698;-66
2024/01/29 01:25:53;;;;;;;;;;;;;;;1.26;94.53;101347.41;109635;1252;74317;-66
2024/01/29 01:28:20;;;;;;;;;;;;;;;1.29;94.60;101351.02;109609;1252;68956;-65
2024/01/29 01:30:48;;;;;;;;;;;;;;;1.34;94.77;101355.01;109620;1254;72146;-66
2024/01/29 01:33:15;;;;;;;;;;;;;;;1.30;94.96;101356.65;109223;1253;60865;-66
2024/01/29 01:35:43;;;;;;;;;;;;;;;1.35;95.01;101354.75;109620;1253;59156;-65
2024/01/29 01:38:10;;;;;;;;;;;;;;;1.38;94.99;101359.05;109256;1254;76898;-66
2024/01/29 01:40:38;;;;;;;;;;;;;;;1.34;94.59;101360.86;109640;1252;69846;-66
2024/01/29 01:43:18;;;;;;;;;;;;;;;1.34;94.81;101359.25;109613;1253;74980;-66
2024/01/29 01:46:09;;;;;;;;;;;;;;;1.43;94.90;101361.19;109579;1254;60784;-66
2024/01/29 01:48:37;;;;;;;;;;;;;;;1.38;94.76;101362.34;108970;1260;60203;-65
2024/01/29 01:51:04;;;;;;;;;;;;;;;1.44;94.65;101363.91;109015;1258;76186;-66
2024/01/29 01:53:32;;;;;;;;;;;;;;;1.48;94.93;101365.80;109031;1260;69341;-65
2024/01/29 01:55:59;;;;;;;;;;;;;;;1.50;94.89;101375.81;108863;1262;74642;-67
2024/01/29 01:58:27;;;;;;;;;;;;;;;1.49;94.71;101378.63;108881;1262;63140;-65
2024/01/29 02:00:57;;;;;;;;;;;;;;;1.40;94.73;101378.95;108881;1262;58983;-63
2024/01/29 02:03:25;;;;;;;;;;;;;;;1.42;94.70;101384.18;108864;1262;76997;-64
2024/01/29 02:05:53;;;;;;;;;;;;;;;1.46;94.44;101388.41;108877;1261;68525;-65
2024/01/29 02:08:20;;;;;;;;;;;;;;;1.51;93.98;101393.20;108749;1263;73792;-64
2024/01/29 02:10:48;;;;;;;;;;;;;;;1.55;93.73;101399.34;108782;1267;59538;-65
2024/01/29 02:13:15;;;;;;;;;;;;;;;1.57;93.83;101396.16;108773;1263;59131;-65
2024/01/29 02:15:43;;;;;;;;;;;;;;;1.51;94.02;101394.81;108629;1262;75069;-65
2024/01/29 02:18:10;;;;;;;;;;;;;;;1.51;94.09;101393.76;108762;1263;68043;-65
2024/01/29 02:20:38;;;;;;;;;;;;;;;1.51;93.98;101391.47;108750;1262;74008;-64
2024/01/29 02:23:05;;;;;;;;;;;;;;;1.53;93.80;101394.23;108818;1263;62603;-64
2024/01/29 02:25:33;;;;;;;;;;;;;;;1.46;93.65;101396.73;108823;1260;59015;-65
2024/01/29 02:28:01;;;;;;;;;;;;;;;1.41;93.79;101400.67;109208;1257;76279;-65
2024/01/29 02:30:29;;;;;;;;;;;;;;;1.45;94.00;101407.89;109316;1254;68550;-65
2024/01/29 02:32:56;;;;;;;;;;;;;;;1.48;93.99;101404.27;109197;1254;74956;-65
2024/01/29 02:35:24;;;;;;;;;;;;;;;1.43;94.06;101404.75;109274;1257;63155;-65
2024/01/29 02:37:51;;;;;;;;;;;;;;;1.51;94.29;101407.30;109274;1254;60176;-65
2024/01/29 02:40:19;;;;;;;;;;;;;;;1.41;94.42;101400.91;109559;1254;73788;-65
2024/01/29 02:42:46;;;;;;;;;;;;;;;1.51;93.75;101398.16;109254;1252;69317;-65
2024/01/29 02:45:14;;;;;;;;;;;;;;;0.84;97.43;101402.39;109460;1252;72164;-65
2024/01/29 02:47:41;;;;;;;;;;;;;;;0.51;99.82;101408.02;109672;1253;63644;-64
2024/01/29 02:50:09;;;;;;;;;;;;;;;1.17;97.53;101407.20;109597;1252;58900;-64
2024/01/29 02:52:36;;;;;;;;;;;;;;;1.32;96.20;101411.27;109659;1251;72614;-64
2024/01/29 02:55:04;;;;;;;;;;;;;;;1.32;95.96;101410.91;109598;1251;71095;-64
2024/01/29 02:57:32;;;;;;;;;;;;;;;1.42;95.92;101405.04;109612;1251;74077;-65
2024/01/29 02:59:59;;;;;;;;;;;;;;;1.45;95.31;101413.17;109562;1254;61018;-65
2024/01/29 03:02:27;;;;;;;;;;;;;;;1.48;95.13;101411.29;109424;1254;59141;-65
2024/01/29 03:04:54;;;;;;;;;;;;;;;1.47;94.98;101405.02;109429;1253;76982;-64
2024/01/29 03:07:22;;;;;;;;;;;;;;;1.46;94.88;101412.39;109466;1254;68344;-62
2024/01/29 03:09:50;;;;;;;;;;;;;;;1.44;95.05;101406.27;109387;1254;74625;-63
2024/01/29 03:12:17;;;;;;;;;;;;;;;1.31;95.90;101402.69;109313;1256;61798;-62
2024/01/29 03:14:45;;;;;;;;;;;;;;;1.41;95.61;101396.33;109305;1256;58883;-63
2024/01/29 03:17:12;;;;;;;;;;;;;;;1.39;95.89;101395.80;109167;1254;76985;-65
2024/01/29 03:19:40;;;;;;;;;;;;;;;1.43;95.93;101407.92;109307;1254;67949;-66
2024/01/29 03:22:08;;;;;;;;;;;;;;;1.41;95.89;101409.72;109169;1254;71180;-63
2024/01/29 03:24:35;;;;;;;;;;;;;;;1.07;97.77;101409.11;109300;1254;61674;-65
2024/01/29 03:27:03;;;;;;;;;;;;;;;0.71;100.00;101408.23;109295;1254;60334;-66
2024/01/29 03:29:30;;;;;;;;;;;;;;;1.40;97.64;101409.11;109157;1254;72841;-66
2024/01/29 03:31:58;;;;;;;;;;;;;;;1.46;95.96;101409.70;109531;1254;70152;-67
2024/01/29 03:34:25;;;;;;;;;;;;;;;1.38;96.36;101415.51;109632;1252;72717;-66
2024/01/29 03:36:53;;;;;;;;;;;;;;;1.41;96.87;101404.57;109550;1253;59990;-67
2024/01/29 03:39:20;;;;;;;;;;;;;;;1.45;96.68;101409.67;109431;1253;59354;-66
2024/01/29 03:41:48;;;;;;;;;;;;;;;1.40;95.85;101417.20;109346;1253;73665;-67
2024/01/29 03:44:16;;;;;;;;;;;;;;;1.30;96.10;101419.21;109374;1256;67439;-66
2024/01/29 03:46:44;;;;;;;;;;;;;;;1.39;95.96;101419.06;109176;1256;74787;-66
2024/01/29 03:49:11;;;;;;;;;;;;;;;1.42;95.77;101417.17;109246;1256;63160;-67
2024/01/29 03:51:39;;;;;;;;;;;;;;;1.37;95.94;101418.72;109396;1256;59098;-64
2024/01/29 03:54:07;;;;;;;;;;;;;;;1.32;96.46;101418.15;109217;1256;76969;-63
2024/01/29 03:56:34;;;;;;;;;;;;;;;1.37;96.15;101420.72;109230;1256;67893;-65
2024/01/29 03:59:02;;;;;;;;;;;;;;;1.34;96.09;101419.93;109189;1256;74275;-66
2024/01/29 04:01:29;;;;;;;;;;;;;;;1.34;96.29;101420.85;109166;1256;62102;-66
2024/01/29 04:03:57;;;;;;;;;;;;;;;1.36;96.30;101424.68;109205;1256;59934;-66
2024/01/29 04:06:25;;;;;;;;;;;;;;;1.39;96.27;101421.36;109144;1256;74448;-65
2024/01/29 04:08:52;;;;;;;;;;;;;;;1.46;95.92;101423.68;109107;1257;67696;-66
2024/01/29 04:11:20;;;;;;;;;;;;;;;1.42;96.00;101429.55;109124;1257;73108;-65
2024/01/29 04:13:47;;;;;;;;;;;;;;;1.45;95.97;101429.97;109080;1257;60867;-65
2024/01/29 04:16:15;;;;;;;;;;;;;;;1.45;95.66;101425.73;109333;1254;59314;-64
2024/01/29 04:18:42;;;;;;;;;;;;;;;1.44;95.62;101429.38;109027;1254;72833;-65
2024/01/29 04:21:10;;;;;;;;;;;;;;;1.46;95.39;101426.98;109380;1255;69024;-66
2024/01/29 04:23:38;;;;;;;;;;;;;;;1.47;95.22;101429.73;109418;1254;72191;-66
2024/01/29 04:26:05;;;;;;;;;;;;;;;1.48;95.25;101428.40;109279;1256;58989;-62
2024/01/29 04:28:32;;;;;;;;;;;;;;;1.48;95.34;101424.19;109325;1254;62075;-64
2024/01/29 04:31:00;;;;;;;;;;;;;;;1.50;95.51;101422.79;109060;1254;73490;-65
2024/01/29 04:33:35;;;;;;;;;;;;;;;1.46;95.49;101432.51;109403;1254;71113;-66
2024/01/29 04:36:02;;;;;;;;;;;;;;;1.47;95.31;101428.00;109395;1254;71258;-66
2024/01/29 04:38:30;;;;;;;;;;;;;;;1.46;95.66;101425.77;109398;1256;61082;-62
2024/01/29 04:40:57;;;;;;;;;;;;;;;1.49;95.75;101432.38;109233;1256;59865;-64
2024/01/29 04:43:25;;;;;;;;;;;;;;;1.51;95.32;101430.45;109212;1257;74063;-64
2024/01/29 04:45:52;;;;;;;;;;;;;;;1.46;95.70;101427.88;109114;1256;70581;-64
2024/01/29 04:48:21;;;;;;;;;;;;;;;1.44;95.34;101429.53;109167;1256;73986;-64
2024/01/29 04:50:48;;;;;;;;;;;;;;;1.41;95.56;101430.49;109070;1257;60878;-64
2024/01/29 04:53:16;;;;;;;;;;;;;;;1.51;95.68;101430.80;109105;1257;58954;-65
2024/01/29 04:55:43;;;;;;;;;;;;;;;1.53;95.49;101423.68;109102;1257;73107;-66
2024/01/29 04:58:11;;;;;;;;;;;;;;;1.64;95.41;101425.27;109102;1257;67986;-64
2024/01/29 05:00:38;;;;;;;;;;;;;;;1.62;95.37;101421.44;109069;1257;71597;-67
2024/01/29 05:03:06;;;;;;;;;;;;;;;1.57;95.41;101430.94;108963;1258;60693;-63
2024/01/29 05:05:33;;;;;;;;;;;;;;;1.52;95.46;101436.68;109084;1257;62126;-65
2024/01/29 05:08:01;;;;;;;;;;;;;;;1.46;95.53;101440.23;109048;1259;76028;-66
2024/01/29 05:10:29;;;;;;;;;;;;;;;1.55;95.32;101439.98;109074;1259;69000;-67
2024/01/29 05:12:56;;;;;;;;;;;;;;;1.56;95.26;101447.80;108937;1256;74237;-62
2024/01/29 05:15:24;;;;;;;;;;;;;;;1.47;95.36;101446.54;109096;1256;60620;-66
2024/01/29 05:17:52;;;;;;;;;;;;;;;1.53;95.37;101445.95;109102;1257;61164;-66
2024/01/29 05:20:19;;;;;;;;;;;;;;;1.54;95.34;101448.73;109096;1259;76055;-66
2024/01/29 05:22:47;;;;;;;;;;;;;;;1.55;95.51;101460.73;109111;1256;71047;-64
2024/01/29 05:25:14;;;;;;;;;;;;;;;1.64;95.53;101461.95;109109;1256;71612;-65
2024/01/29 05:27:42;;;;;;;;;;;;;;;1.69;95.14;101461.67;109000;1256;61934;-65
2024/01/29 05:30:10;;;;;;;;;;;;;;;1.67;95.17;101462.23;109417;1253;62018;-65
2024/01/29 05:32:37;;;;;;;;;;;;;;;1.76;94.46;101463.33;109434;1253;74934;-68
2024/01/29 05:35:05;;;;;;;;;;;;;;;1.84;94.56;101465.38;109438;1253;69948;-65
2024/01/29 05:37:34;;;;;;;;;;;;;;;1.90;94.14;101468.41;109415;1253;73779;-64
2024/01/29 05:40:01;;;;;;;;;;;;;;;1.86;93.74;101468.45;109353;1256;59766;-64
2024/01/29 05:42:29;;;;;;;;;;;;;;;1.84;93.52;101473.32;109395;1253;59073;-63
2024/01/29 05:44:56;;;;;;;;;;;;;;;1.79;93.69;101480.45;109327;1253;74531;-65
2024/01/29 05:47:24;;;;;;;;;;;;;;;1.84;94.32;101481.98;109437;1254;70797;-62
2024/01/29 05:49:51;;;;;;;;;;;;;;;1.92;94.42;101475.52;109482;1253;71182;-64
2024/01/29 05:52:19;;;;;;;;;;;;;;;1.90;93.99;101472.92;109377;1255;60228;-66
2024/01/29 05:54:46;;;;;;;;;;;;;;;1.92;94.00;101475.62;109401;1253;59529;-65
2024/01/29 05:57:14;;;;;;;;;;;;;;;1.92;93.79;101483.08;109387;1253;76901;-66
2024/01/29 05:59:42;;;;;;;;;;;;;;;1.88;93.59;101486.17;109393;1253;71081;-62
2024/01/29 06:02:09;;;;;;;;;;;;;;;1.86;93.73;101481.52;109357;1255;74341;-65
2024/01/29 06:04:37;;;;;;;;;;;;;;;1.78;93.84;101477.73;109319;1253;62228;-63
2024/01/29 06:07:05;;;;;;;;;;;;;;;1.11;97.92;101481.04;109291;1256;59215;-65
2024/01/29 06:09:33;;;;;;;;;;;;;;;0.84;98.65;101478.77;109295;1256;75738;-67
2024/01/29 06:12:00;;;;;;;;;;;;;;;0.90;99.62;101476.60;109038;1256;70023;-63
2024/01/29 06:14:28;;;;;;;;;;;;;;;0.74;99.48;101479.46;109122;1255;74953;-66
2024/01/29 06:16:56;;;;;;;;;;;;;;;0.56;100.00;101481.37;109097;1256;61817;-67
2024/01/29 06:19:24;;;;;;;;;;;;;;;0.58;100.00;101478.83;109160;1255;59167;-66
2024/01/29 06:21:51;;;;;;;;;;;;;;;0.88;99.78;101482.80;109175;1255;75050;-63
2024/01/29 06:24:19;;;;;;;;;;;;;;;1.66;97.06;101486.91;109113;1255;68480;-66
2024/01/29 06:26:46;;;;;;;;;;;;;;;1.79;95.83;101492.83;109182;1255;71459;-65
2024/01/29 06:29:15;;;;;;;;;;;;;;;1.77;95.76;101494.45;109187;1255;61143;-66
2024/01/29 06:31:43;;;;;;;;;;;;;;;1.60;96.56;101503.66;109168;1256;59109;-64
2024/01/29 06:34:10;;;;;;;;;;;;;;;1.53;96.94;101504.73;109208;1256;75844;-64
2024/01/29 06:36:38;;;;;;;;;;;;;;;1.15;99.16;101498.42;109187;1259;70160;-67
2024/01/29 06:39:07;;;;;;;;;;;;;;;1.41;97.57;101497.38;109415;1253;72524;-65
2024/01/29 06:41:35;;;;;;;;;;;;;;;1.33;97.82;101504.16;109423;1254;62209;-66
2024/01/29 06:44:02;;;;;;;;;;;;;;;1.50;97.62;101509.77;109476;1254;60271;-65
2024/01/29 06:46:30;;;;;;;;;;;;;;;1.58;96.92;101507.63;109597;1253;73382;-64
2024/01/29 06:48:57;;;;;;;;;;;;;;;1.49;97.58;101510.22;109497;1253;69391;-65
2024/01/29 06:51:25;;;;;;;;;;;;;;;1.61;97.08;101512.27;109415;1253;72270;-63
2024/01/29 06:53:53;;;;;;;;;;;;;;;1.57;96.89;101512.05;109366;1255;62020;-66
2024/01/29 06:56:20;;;;;;;;;;;;;;;1.00;99.90;101514.16;109397;1255;58972;-66
2024/01/29 06:58:48;;;;;;;;;;;;;;;1.39;98.84;101514.83;109421;1253;73763;-63
2024/01/29 07:01:20;;;;;;;;;;;;;;;1.38;98.74;101512.10;109400;1255;68750;-64
2024/01/29 07:03:48;;;;;;;;;;;;;;;1.45;98.40;101520.81;109282;1255;70595;-65
2024/01/29 07:06:17;;;;;;;;;;;;;;;1.52;98.49;101524.96;109310;1256;61179;-64
2024/01/29 07:08:44;;;;;;;;;;;;;;;1.60;98.04;101527.39;109417;1255;60296;-65
2024/01/29 07:11:12;;;;;;;;;;;;;;;1.75;96.84;101534.95;109252;1254;75653;-66
2024/01/29 07:13:40;;;;;;;;;;;;;;;1.80;96.47;101542.21;109469;1254;69380;-61
2024/01/29 07:16:08;;;;;;;;;;;;;;;1.87;95.34;101542.97;109436;1254;74095;-65
2024/01/29 07:18:36;;;;;;;;;;;;;;;1.93;94.94;101544.95;109480;1253;61915;-65
2024/01/29 07:21:04;;;;;;;;;;;;;;;1.92;94.95;101543.68;109450;1254;60177;-64
2024/01/29 07:23:32;;;;;;;;;;;;;;;1.85;94.44;101547.17;109447;1254;73607;-62
2024/01/29 07:25:59;;;;;;;;;;;;;;;1.76;94.69;101550.11;109160;1253;71030;-62
2024/01/29 07:28:27;;;;;;;;;;;;;;;1.83;95.11;101550.41;109180;1254;73181;-62
2024/01/29 07:30:55;;;;;;;;;;;;;;;1.93;94.56;101550.09;109461;1253;61093;-65
2024/01/29 07:33:22;;;;;;;;;;;;;;;1.92;94.22;101547.06;109329;1255;59838;-62
2024/01/29 07:35:50;;;;;;;;;;;;;;;1.75;94.99;101546.17;109223;1255;74031;-65
2024/01/29 07:38:17;;;;;;;;;;;;;;;1.98;94.28;101554.41;109069;1255;66610;-62
2024/01/29 07:40:45;;;;;;;;;;;;;;;2.21;94.03;101559.39;109191;1255;70667;-62
2024/01/29 07:43:12;;;;;;;;;;;;;;;2.28;94.22;101561.19;109141;1257;62531;-62
2024/01/29 07:45:40;;;;;;;;;;;;;;;2.35;93.43;101560.33;109207;1255;61101;-62
2024/01/29 07:48:08;;;;;;;;;;;;;;;2.33;92.84;101562.68;109143;1255;75309;-65
2024/01/29 07:50:35;;;;;;;;;;;;;;;2.08;92.89;101558.90;109204;1255;69184;-62
2024/01/29 07:53:03;;;;;;;;;;;;;;;1.99;93.77;101559.79;109029;1256;72023;-62
2024/01/29 07:55:32;;;;;;;;;;;;;;;1.95;93.61;101564.41;109186;1255;60077;-64
2024/01/29 07:58:00;;;;;;;;;;;;;;;2.11;93.84;101570.22;109197;1255;59654;-66
2024/01/29 08:00:28;;;;;;;;;;;;;;;2.35;93.45;101579.77;109232;1255;76784;-62
2024/01/29 08:02:55;;;;;;;;;;;;;;;2.48;93.08;101580.83;109078;1258;67952;-63
2024/01/29 08:05:23;;;;;;;;;;;;;;;2.62;92.14;101580.82;109503;1252;72618;-64
2024/01/29 08:07:50;;;;;;;;;;;;;;;2.54;90.25;101577.55;109602;1251;63218;-65
2024/01/29 08:10:18;;;;;;;;;;;;;;;2.42;90.59;101577.16;109562;1253;60860;-63
2024/01/29 08:12:46;;;;;;;;;;;;;;;2.39;90.83;101576.96;109579;1252;75530;-66
2024/01/29 08:15:14;;;;;;;;;;;;;;;2.52;91.29;101575.08;109587;1252;68584;-65
2024/01/29 08:17:42;;;;;;;;;;;;;;;2.65;90.64;101574.20;109210;1252;74298;-67
2024/01/29 08:20:10;;;;;;;;;;;;;;;2.60;91.06;101572.75;109575;1252;60076;-67
2024/01/29 08:22:38;;;;;;;;;;;;;;;2.61;91.73;101577.60;109199;1253;61120;-63
2024/01/29 08:25:06;;;;;;;;;;;;;;;2.72;90.61;101582.10;109592;1253;75238;-65
2024/01/29 08:27:33;;;;;;;;;;;;;;;2.72;89.20;101589.20;109587;1252;69875;-65
2024/01/29 08:30:01;;;;;;;;;;;;;;;2.85;89.81;101591.08;109611;1253;74098;-62
2024/01/29 08:32:28;;;;;;;;;;;;;;;2.98;88.79;101592.23;109564;1253;61948;-65
2024/01/29 08:34:56;;;;;;;;;;;;;;;2.87;88.19;101594.27;109517;1253;58884;-65
2024/01/29 08:37:23;;;;;;;;;;;;;;;2.98;87.86;101601.96;109566;1253;72763;-62
2024/01/29 08:39:51;;;;;;;;;;;;;;;2.94;86.61;101602.58;109288;1252;67354;-65
2024/01/29 08:42:18;;;;;;;;;;;;;;;2.87;88.82;101603.25;109582;1253;72769;-62
2024/01/29 08:44:46;;;;;;;;;;;;;;;2.98;88.73;101604.50;109585;1253;60441;-65
2024/01/29 08:47:13;;;;;;;;;;;;;;;3.16;87.83;101610.41;109559;1253;62054;-65
2024/01/29 08:49:41;;;;;;;;;;;;;;;3.03;86.85;101605.59;109575;1253;75165;-66
2024/01/29 08:52:08;;;;;;;;;;;;;;;2.65;88.00;101604.74;109616;1252;71078;-65
2024/01/29 08:54:36;;;;;;;;;;;;;;;2.83;88.72;101607.73;109582;1252;70993;-65
2024/01/29 08:57:03;;;;;;;;;;;;;;;2.88;88.92;101611.52;109548;1253;59555;-64
2024/01/29 08:59:31;;;;;;;;;;;;;;;3.12;89.22;101616.33;109608;1252;62103;-65
2024/01/29 09:01:59;;;;;;;;;;;;;;;3.33;87.48;101621.64;109607;1253;75549;-65
2024/01/29 09:04:27;;;;;;;;;;;;;;;3.36;86.89;101624.92;109395;1252;70903;-64
2024/01/29 09:06:55;;;;;;;;;;;;;;;3.34;86.85;101628.48;109575;1252;74970;-63
2024/01/29 09:09:23;;;;;;;;;;;;;;;3.30;86.99;101632.02;109589;1251;60867;-65
2024/01/29 09:11:51;;;;;;;;;;;;;;;3.36;86.93;101630.34;109636;1251;58940;-64
2024/01/29 09:14:20;;;;;;;;;;;;;;;3.21;85.10;101629.09;109598;1251;72921;-65
2024/01/29 09:16:47;;;;;;;;;;;;;;;3.33;86.66;101633.89;109549;1253;67139;-65
2024/01/29 09:19:16;;;;;;;;;;;;;;;3.44;86.20;101626.23;109440;1253;73539;-65
2024/01/29 09:21:47;;;;;;;;;;;;;;;3.31;84.56;101624.71;109150;1254;63036;-65
2024/01/29 09:24:14;;;;;;;;;;;;;;;3.33;85.18;101621.08;109524;1253;61882;-65
2024/01/29 09:26:42;;;;;;;;;;;;;;;3.42;85.77;101622.54;109251;1253;74180;-64
2024/01/29 09:29:09;;;;;;;;;;;;;;;3.60;85.44;101632.37;109458;1253;67765;-65
2024/01/29 09:31:37;;;;;;;;;;;;;;;3.52;83.25;101632.66;109455;1253;74057;-65
2024/01/29 09:34:05;;;;;;;;;;;;;;;3.63;83.99;101630.80;109440;1255;61464;-64
2024/01/29 09:36:33;;;;;;;;;;;;;;;3.59;83.05;101631.54;109438;1253;60214;-65
2024/01/29 09:39:01;;;;;;;;;;;;;;;3.64;83.41;101631.01;109466;1253;75092;-64
2024/01/29 09:41:33;;;;;;;;;;;;;;;3.57;82.42;101631.09;109479;1254;70823;-65
2024/01/29 09:44:03;;;;;;;;;;;;;;;3.62;83.21;101626.27;109438;1253;71282;-66
2024/01/29 09:46:31;;;;;;;;;;;;;;;3.73;83.15;101629.91;109306;1259;62717;-66
2024/01/29 09:48:58;;;;;;;;;;;;;;;3.94;82.43;101627.60;109551;1254;61154;-66
2024/01/29 09:51:26;;;;;;;;;;;;;;;4.05;82.31;101632.36;109626;1253;74765;-65
2024/01/29 09:53:54;;;;;;;;;;;;;;;4.14;81.46;101636.69;109471;1252;71114;-66
2024/01/29 09:56:21;;;;;;;;;;;;;;;3.95;78.97;101643.27;109552;1253;74971;-65
2024/01/29 09:58:49;;;;;;;;;;;;;;;3.75;80.26;101644.81;109585;1253;59785;-64
2024/01/29 10:01:18;;;;;;;;;;;;;;;3.71;80.32;101645.75;109577;1253;60937;-65
2024/01/29 10:03:46;;;;;;;;;;;;;;;3.82;81.25;101644.44;109646;1253;74736;-66
2024/01/29 10:06:13;;;;;;;;;;;;;;;4.08;81.22;101638.95;109458;1254;71059;-66
2024/01/29 10:08:41;;;;;;;;;;;;;;;4.34;79.95;101634.02;109596;1252;72074;-65
2024/01/29 10:11:09;;;;;;;;;;;;;;;4.34;77.25;101633.88;109525;1251;62403;-65
2024/01/29 10:13:36;;;;;;;;;;;;;;;4.23;77.35;101636.45;109637;1251;61793;-65
2024/01/29 10:16:04;;;;;;;;;;;;;;;4.27;78.06;101632.16;109602;1251;74002;-66
2024/01/29 10:18:32;;;;;;;;;;;;;;;4.32;78.36;101625.80;109616;1251;69825;-65
2024/01/29 10:21:00;;;;;;;;;;;;;;;4.40;77.20;101628.79;109679;1253;72376;-65
2024/01/29 10:23:28;;;;;;;;;;;;;;;4.53;75.79;101628.82;109592;1252;63197;-64
2024/01/29 10:26:00;;;;;;;;;;;;;;;4.38;75.60;101631.37;109591;1251;61137;-66
2024/01/29 10:28:27;;;;;;;;;;;;;;;4.05;76.63;101631.20;109319;1251;74867;-66
2024/01/29 10:30:55;;;;;;;;;;;;;;;3.89;77.09;101624.05;109305;1251;67043;-65
2024/01/29 10:33:24;;;;;;;;;;;;;;;4.21;76.59;101621.80;109602;1251;73853;-68
2024/01/29 10:35:52;;;;;;;;;;;;;;;4.22;77.95;101620.63;109528;1253;59559;-65
2024/01/29 10:38:23;;;;;;;;;;;;;;;4.18;77.13;101624.38;109384;1253;59932;-67
2024/01/29 10:40:51;;;;;;;;;;;;;;;4.38;76.80;101621.05;109488;1253;76623;-66
2024/01/29 10:43:21;;;;;;;;;;;;;;;4.61;76.34;101622.91;109389;1254;68511;-66
2024/01/29 10:45:49;;;;;;;;;;;;;;;4.75;75.68;101618.53;109462;1253;71591;-66
2024/01/29 10:48:20;;;;;;;;;;;;;;;5.27;75.76;101615.54;109290;1253;62747;-65
2024/01/29 10:50:48;;;;;;;;;;;;;;;5.76;69.65;101613.10;109480;1253;58929;-66
2024/01/29 10:53:16;;;;;;;;;;;;;;;5.78;67.49;101618.23;109454;1253;73554;-66
2024/01/29 10:55:44;;;;;;;;;;;;;;;5.59;67.10;101621.61;109559;1253;71058;-65
2024/01/29 10:58:12;;;;;;;;;;;;;;;5.64;68.00;101622.48;109459;1253;72586;-65
2024/01/29 11:00:41;;;;;;;;;;;;;;;5.75;68.56;101622.88;109446;1253;62225;-65
2024/01/29 11:03:09;;;;;;;;;;;;;;;5.66;68.59;101623.89;109281;1254;59016;-65
2024/01/29 11:05:40;;;;;;;;;;;;;;;5.47;68.86;101621.98;109536;1253;73196;-65
2024/01/29 11:08:12;;;;;;;;;;;;;;;5.71;70.10;101622.45;109621;1251;70012;-65
2024/01/29 11:10:40;;;;;;;;;;;;;;;6.48;68.18;101621.76;109603;1252;70590;-67
2024/01/29 11:13:08;;;;;;;;;;;;;;;6.95;66.66;101623.61;109537;1253;60979;-68
2024/01/29 11:15:36;;;;;;;;;;;;;;;7.34;63.97;101628.23;109541;1253;62785;-66
2024/01/29 11:18:04;;;;;;;;;;;;;;;7.45;62.72;101627.13;109219;1253;72630;-67
2024/01/29 11:20:32;;;;;;;;;;;;;;;7.39;61.83;101624.83;109469;1253;154443;-67
2024/01/29 11:23:00;;;;;;;;;;;;;;;7.15;59.44;101628.61;109569;1254;71535;-65
2024/01/29 11:25:27;;;;;;;;;;;;;;;6.79;59.77;101627.27;109561;1254;59405;-66
2024/01/29 11:27:56;;;;;;;;;;;;;;;6.56;60.47;101630.58;109622;1252;60020;-65
2024/01/29 11:30:28;;;;;;;;;;;;;;;6.67;62.16;101629.79;109586;1254;74922;-66
2024/01/29 11:32:56;;;;;;;;;;;;;;;6.60;61.68;101626.25;109590;1252;68632;-66
2024/01/29 11:35:26;;;;;;;;;;;;;;;6.05;62.06;101628.38;109552;1252;74591;-66
2024/01/29 11:38:08;;;;;;;;;;;;;;;5.58;63.88;101627.04;109586;1253;59691;-66
2024/01/29 11:40:40;;;;;;;;;;;;;;;5.42;65.46;101621.90;109594;1252;60385;-65
2024/01/29 11:43:12;;;;;;;;;;;;;;;5.29;66.52;101622.10;109594;1252;76049;-66
2024/01/29 11:45:40;;;;;;;;;;;;;;;5.18;67.98;101620.05;109265;1254;69471;-66
2024/01/29 11:48:09;;;;;;;;;;;;;;;5.25;67.60;101623.73;109260;1251;71833;-66
2024/01/29 11:50:40;;;;;;;;;;;;;;;5.20;68.16;101619.88;109568;1251;60944;-66
2024/01/29 11:53:08;;;;;;;;;;;;;;;4.95;68.22;101614.92;109647;1251;58965;-67
2024/01/29 11:55:36;;;;;;;;;;;;;;;4.92;68.94;101614.20;109687;1251;72837;-66
2024/01/29 11:58:04;;;;;;;;;;;;;;;4.70;69.23;101616.29;109624;1251;69172;-66
2024/01/29 12:00:31;;;;;;;;;;;;;;;4.59;70.60;101615.09;109267;1254;71571;-66
2024/01/29 12:02:59;;;;;;;;;;;;;;;4.69;71.38;101611.73;109427;1256;60119;-66
2024/01/29 12:05:26;;;;;;;;;;;;;;;4.84;70.32;101611.90;109298;1254;59053;-67
2024/01/29 12:07:54;;;;;;;;;;;;;;;4.95;70.18;101612.83;109454;1254;76454;-67
2024/01/29 12:10:22;;;;;;;;;;;;;;;5.50;68.09;101611.08;109068;1255;66439;-67
2024/01/29 12:12:49;;;;;;;;;;;;;;;5.33;67.89;101611.50;109042;1257;71388;-66
2024/01/29 12:15:17;;;;;;;;;;;;;;;5.11;67.57;101610.86;109142;1257;60057;-67
2024/01/29 12:17:45;;;;;;;;;;;;;;;4.02;72.78;101610.48;109117;1257;58847;-69
2024/01/29 12:20:13;;;;;;;;;;;;;;;3.80;76.37;101605.30;109161;1257;76976;-66
2024/01/29 12:22:41;;;;;;;;;;;;;;;3.78;77.76;101603.27;109102;1257;69137;-68
2024/01/29 12:25:11;;;;;;;;;;;;;;;3.61;78.99;101605.73;109067;1256;73128;-67
2024/01/29 12:27:40;;;;;;;;;;;;;;;3.54;80.20;101603.55;109120;1257;61243;-67
2024/01/29 12:30:09;;;;;;;;;;;;;;;3.67;81.42;101605.02;109145;1257;60091;-67
2024/01/29 12:32:39;;;;;;;;;;;;;;;3.81;78.70;101608.54;109104;1259;74662;-68
2024/01/29 12:35:28;;;;;;;;;;;;;;;3.64;79.54;101611.38;109459;1253;68561;-66
2024/01/29 12:38:05;;;;;;;;;;;;;;;3.65;79.92;101610.39;109163;1253;72336;-68
2024/01/29 12:40:33;;;;;;;;;;;;;;;3.56;79.80;101612.42;109432;1255;62113;-67